KTCM/TCM METAR and TAF weather

Enter ICAO airport designator
Station Type Date Time Source
KTCM METAR 2022/06/28 08:58 UTC NOAA

KTCM 280858Z AUTO 00000KT 10SM CLR 14/14 A3001 RMK AO2 SLP164 T01400135 50010 $


Station Type Date Time Source
KTCM Decoded METAR 2022/06/28 08:58 UTC NOAA

Tacoma / McChord Air Force Base, WA, United States (KTCM) 47-09N 122-29W 87M
Jun 28, 2022 - 04:58 AM EDT / 2022.06.28 0858 UTC
Wind: Calm:0
Visibility: 10 mile(s):0
Sky conditions: clear
Temperature: 57.2 F (14.0 C)
Dew Point: 56.3 F (13.5 C)
Relative Humidity: 96%
Pressure (altimeter): 30.01 in. Hg (1016 hPa)
Pressure tendency: 0.03 inches (1.0 hPa) higher than three hours ago
ob: KTCM 280858Z AUTO 00000KT 10SM CLR 14/14 A3001 RMK AO2 SLP164 T01400135 50010
cycle: 9

Station Type Date Time Source
KTCM TAF 2022/06/28 05:06 UTC NOAA

TAF KTCM 280500Z 2805/2911 26006KT 9999 SKC QNH2995INS
BECMG 2810/2811 23006KT 9999 FEW020 SCT050 QNH3001INS
BECMG 2815/2816 19010G18KT 9999 SCT025 BKN045 QNH3006INS
BECMG 2817/2818 21012G22KT 9999 BKN040 QNH3007INS
BECMG 2903/2904 23008KT 9999 SCT045 QNH3009INS TX24/2823Z TN12/2813Z

Example: see airport list